Time;durP1;ratioP1;P1;durP2;ratioP2;P2;SDS_P1;SDS_P2;PMS_P1;PMS_P2;Temp;Humidity;BMP_temperature;BMP_pressure;BME280_temperature;BME280_humidity;BME280_pressure;Samples;Min_cycle;Max_cycle;Signal;HPM_P1;HPM_P2
2021/06/30 00:01:31;;;;;;;3.75;3.30;;;18.80;83.80;;;;;;5123817;28;20063;-88
2021/06/30 00:03:57;;;;;;;5.07;3.78;;;18.70;83.90;;;;;;5087374;28;20074;-88
2021/06/30 00:06:23;;;;;;;5.88;4.05;;;18.60;84.40;;;;;;5096425;28;20098;-88
2021/06/30 00:08:49;;;;;;;5.82;3.72;;;18.60;84.60;;;;;;5077811;28;20210;-88
2021/06/30 00:11:16;;;;;;;4.90;3.70;;;18.60;84.80;;;;;;5078607;28;20473;-89
2021/06/30 00:13:42;;;;;;;5.50;3.80;;;18.60;85.10;;;;;;5078156;28;20458;-89
2021/06/30 00:16:09;;;;;;;5.45;4.10;;;18.60;85.10;;;;;;5095089;28;20024;-88
2021/06/30 00:18:35;;;;;;;5.40;3.70;;;18.60;85.10;;;;;;5094750;28;20079;-86
2021/06/30 00:21:01;;;;;;;6.30;4.00;;;18.60;85.30;;;;;;5077792;28;20066;-88
2021/06/30 00:23:27;;;;;;;5.55;4.10;;;18.60;85.40;;;;;;5096432;28;20032;-88
2021/06/30 00:25:53;;;;;;;5.90;3.90;;;18.50;85.50;;;;;;5095478;28;20031;-87
2021/06/30 00:28:18;;;;;;;4.32;3.75;;;18.50;85.40;;;;;;5096487;28;20043;-89
2021/06/30 00:30:44;;;;;;;5.03;3.70;;;18.50;85.40;;;;;;5077477;28;20035;-87
2021/06/30 00:33:10;;;;;;;4.93;3.58;;;18.40;85.50;;;;;;5076993;28;20024;-87
2021/06/30 00:35:35;;;;;;;5.60;3.95;;;18.40;85.30;;;;;;5103522;28;20024;-87
2021/06/30 00:38:01;;;;;;;5.78;4.28;;;18.30;85.50;;;;;;5092783;28;20461;-87
2021/06/30 00:40:28;;;;;;;6.82;4.28;;;18.30;86.00;;;;;;5097514;28;20039;-88
2021/06/30 00:42:53;;;;;;;6.40;4.20;;;18.30;86.20;;;;;;5097689;28;20046;-87
2021/06/30 00:45:20;;;;;;;5.45;4.15;;;18.30;86.10;;;;;;5097930;28;20512;-87
2021/06/30 00:47:47;;;;;;;4.85;3.80;;;18.30;86.10;;;;;;5097062;28;20050;-87
2021/06/30 00:50:14;;;;;;;5.85;3.65;;;18.20;85.80;;;;;;5116062;28;20078;-87
2021/06/30 00:52:40;;;;;;;4.05;3.08;;;18.20;85.70;;;;;;5115945;28;20075;-87
2021/06/30 00:55:06;;;;;;;4.68;3.30;;;18.20;85.60;;;;;;5097914;28;20023;-86
2021/06/30 00:57:32;;;;;;;4.25;3.15;;;18.20;85.80;;;;;;5097506;28;20602;-86
2021/06/30 00:59:58;;;;;;;6.85;3.70;;;18.10;85.80;;;;;;5114883;28;20114;-88
2021/06/30 01:02:24;;;;;;;6.40;4.10;;;18.10;86.10;;;;;;5080114;28;20030;-86
2021/06/30 01:04:50;;;;;;;5.72;3.70;;;18.10;86.50;;;;;;5097152;28;20094;-87
2021/06/30 01:07:16;;;;;;;5.38;4.07;;;18.10;86.30;;;;;;5116253;28;20028;-86
2021/06/30 01:09:42;;;;;;;6.55;3.45;;;18.10;86.50;;;;;;5097369;28;20377;-87
2021/06/30 01:12:08;;;;;;;5.47;3.20;;;18.10;86.20;;;;;;5097276;28;20019;-87
2021/06/30 01:14:36;;;;;;;5.00;3.55;;;18.10;86.10;;;;;;5096974;28;20024;-87
2021/06/30 01:17:04;;;;;;;5.03;3.10;;;18.00;86.00;;;;;;5097277;28;20031;-87
2021/06/30 01:19:30;;;;;;;3.88;2.95;;;18.00;86.20;;;;;;5096604;28;20026;-86
2021/06/30 01:21:57;;;;;;;4.25;2.80;;;18.00;86.20;;;;;;5115147;28;20019;-86
2021/06/30 01:24:23;;;;;;;5.28;3.22;;;18.00;86.40;;;;;;5115347;28;20016;-86
2021/06/30 01:26:49;;;;;;;5.90;3.20;;;17.90;86.80;;;;;;5096717;28;20030;-87
2021/06/30 01:29:18;;;;;;;4.32;3.35;;;17.90;86.70;;;;;;5114623;28;20128;-87
2021/06/30 01:31:44;;;;;;;5.35;3.20;;;17.90;86.90;;;;;;5096075;28;20030;-87
2021/06/30 01:34:13;;;;;;;4.15;3.25;;;17.90;86.90;;;;;;5096475;28;20019;-87
2021/06/30 01:36:54;;;;;;;5.43;3.38;;;17.90;86.70;;;;;;5096415;28;20024;-88
2021/06/30 01:39:21;;;;;;;;;;;17.90;87.10;;;;;;5097266;28;20023;-87
2021/06/30 01:41:47;;;;;;;6.40;3.25;;;17.80;90.90;;;;;;5096613;28;19904;-87
2021/06/30 01:44:14;;;;;;;4.35;3.13;;;17.80;87.00;;;;;;5114612;28;20030;-87
2021/06/30 01:46:41;;;;;;;6.75;3.53;;;17.80;87.10;;;;;;5114504;28;20053;-87
2021/06/30 01:49:07;;;;;;;4.25;3.30;;;17.70;87.50;;;;;;5097311;28;20417;-87
2021/06/30 01:51:34;;;;;;;4.90;3.22;;;17.70;88.10;;;;;;5098211;28;20019;-88
2021/06/30 01:54:02;;;;;;;4.85;3.22;;;17.70;88.10;;;;;;5096850;28;20023;-87
2021/06/30 01:56:29;;;;;;;4.20;2.97;;;17.70;87.70;;;;;;5114504;28;20028;-86
2021/06/30 01:59:11;;;;;;;4.40;3.00;;;17.70;87.70;;;;;;5096009;28;20085;-86
2021/06/30 02:01:37;;;;;;;3.95;3.00;;;17.80;88.30;;;;;;5096425;28;20055;-86
2021/06/30 02:04:03;;;;;;;4.72;3.17;;;17.90;87.30;;;;;;5095848;28;20024;-86
2021/06/30 02:06:37;;;;;;;5.18;3.10;;;17.90;87.10;;;;;;5095781;28;20034;-86
2021/06/30 02:09:04;;;;;;;4.40;3.05;;;18.00;86.90;;;;;;5096279;28;20035;-86
2021/06/30 02:11:30;;;;;;;6.80;3.30;;;18.00;87.10;;;;;;5095891;28;20020;-87
2021/06/30 02:13:55;;;;;;;4.22;2.97;;;18.00;86.90;;;;;;5096063;28;20391;-87
2021/06/30 02:16:21;;;;;;;4.45;2.85;;;18.00;86.60;;;;;;5114381;28;20035;-87
2021/06/30 02:18:48;;;;;;;3.47;2.97;;;18.00;86.70;;;;;;5096370;28;20408;-87
2021/06/30 02:21:13;;;;;;;4.07;2.88;;;18.00;86.60;;;;;;5096125;28;20031;-87
2021/06/30 02:23:40;;;;;;;4.25;3.00;;;18.00;86.70;;;;;;5114116;28;20024;-88
2021/06/30 02:26:06;;;;;;;3.83;2.85;;;18.00;86.40;;;;;;5095739;28;20023;-86
2021/06/30 02:28:32;;;;;;;5.88;3.53;;;18.00;86.40;;;;;;5096220;28;20057;-87
2021/06/30 02:30:59;;;;;;;5.05;3.38;;;18.00;87.00;;;;;;5114111;28;20026;-86
2021/06/30 02:33:26;;;;;;;5.15;3.30;;;18.00;87.00;;;;;;5095974;28;20466;-87
2021/06/30 02:35:51;;;;;;;4.40;3.28;;;18.00;86.80;;;;;;5114314;28;20031;-87
2021/06/30 02:38:17;;;;;;;5.15;3.10;;;18.00;86.80;;;;;;5114379;28;20035;-88
2021/06/30 02:40:43;;;;;;;4.30;3.20;;;18.00;87.00;;;;;;5095732;28;20028;-87
2021/06/30 02:43:10;;;;;;;4.18;2.80;;;18.00;87.10;;;;;;5096674;28;20027;-87
2021/06/30 02:45:36;;;;;;;5.07;2.70;;;18.00;86.90;;;;;;5113610;28;20069;-87
2021/06/30 02:48:02;;;;;;;3.60;2.97;;;18.10;86.80;;;;;;5095713;28;20444;-86
2021/06/30 02:50:28;;;;;;;4.22;3.22;;;18.10;87.20;;;;;;5095787;28;20115;-87
2021/06/30 02:52:54;;;;;;;4.43;3.50;;;18.10;87.20;;;;;;5095417;28;20020;-87
2021/06/30 02:55:20;;;;;;;4.05;2.85;;;18.10;87.20;;;;;;5078606;28;20461;-89
2021/06/30 02:57:47;;;;;;;4.30;3.50;;;18.20;87.00;;;;;;5095773;28;20469;-86
2021/06/30 03:00:18;;;;;;;5.07;3.40;;;18.20;87.10;;;;;;5114404;28;20028;-88
2021/06/30 03:02:44;;;;;;;3.78;3.20;;;18.30;87.20;;;;;;5099259;28;20023;-89
2021/06/30 03:05:10;;;;;;;4.55;3.53;;;18.40;86.80;;;;;;5099391;28;20114;-88
2021/06/30 03:07:36;;;;;;;4.43;3.35;;;18.40;86.60;;;;;;5082984;28;20042;-88
2021/06/30 03:10:04;;;;;;;3.97;3.08;;;18.50;86.30;;;;;;5099197;28;20036;-88
2021/06/30 03:12:30;;;;;;;4.70;3.10;;;18.60;85.90;;;;;;5100041;28;20020;-87
2021/06/30 03:14:55;;;;;;;4.07;3.00;;;18.70;85.50;;;;;;5117434;28;20023;-88
2021/06/30 03:17:21;;;;;;;4.85;3.30;;;18.70;85.10;;;;;;5098836;28;20028;-88
2021/06/30 03:19:47;;;;;;;5.40;3.10;;;18.80;84.80;;;;;;5117491;28;20023;-88
2021/06/30 03:22:13;;;;;;;3.75;2.70;;;18.90;84.40;;;;;;5117385;28;20518;-87
2021/06/30 03:24:38;;;;;;;3.75;2.88;;;19.00;83.90;;;;;;5116892;28;20480;-91
2021/06/30 03:27:04;;;;;;;4.00;3.08;;;19.00;83.60;;;;;;5117313;28;20028;-87
2021/06/30 03:29:30;;;;;;;3.50;2.70;;;19.10;83.00;;;;;;5099723;28;20031;-87
2021/06/30 03:31:55;;;;;;;3.65;2.70;;;19.20;82.60;;;;;;5117068;28;20026;-87
2021/06/30 03:34:21;;;;;;;3.50;2.78;;;19.30;82.30;;;;;;5098671;28;20028;-88
2021/06/30 03:36:47;;;;;;;4.53;2.50;;;19.40;82.20;;;;;;5098507;28;20488;-86
2021/06/30 03:39:13;;;;;;;3.25;2.47;;;19.40;81.80;;;;;;5098454;28;20036;-86
2021/06/30 03:41:39;;;;;;;4.07;2.83;;;19.50;81.60;;;;;;5098549;28;20049;-87
2021/06/30 03:44:05;;;;;;;3.55;2.72;;;19.60;81.40;;;;;;5118423;28;20047;-88
2021/06/30 03:46:31;;;;;;;2.35;2.15;;;19.70;81.20;;;;;;5099518;28;20516;-87
2021/06/30 03:48:56;;;;;;;3.33;2.50;;;19.70;81.10;;;;;;5101171;28;20086;-85
2021/06/30 03:51:22;;;;;;;3.67;2.67;;;19.80;80.80;;;;;;5118573;28;20031;-87
2021/06/30 03:53:48;;;;;;;2.72;2.40;;;19.80;80.60;;;;;;5102296;28;20019;-86
2021/06/30 03:56:14;;;;;;;3.80;2.97;;;19.90;80.30;;;;;;5121378;28;20028;-87
2021/06/30 03:58:40;;;;;;;4.20;2.90;;;19.90;79.90;;;;;;5117792;28;20385;-89
2021/06/30 04:01:05;;;;;;;3.50;2.92;;;19.90;79.70;;;;;;5098015;28;20504;-87
2021/06/30 04:03:31;;;;;;;4.65;3.42;;;19.90;79.70;;;;;;5115903;28;20028;-87
2021/06/30 04:05:58;;;;;;;4.05;3.03;;;19.90;79.50;;;;;;5097642;28;20035;-87
2021/06/30 04:08:24;;;;;;;3.60;3.05;;;19.90;79.30;;;;;;5116127;28;20400;-88
2021/06/30 04:10:50;;;;;;;3.78;3.00;;;20.00;79.10;;;;;;5097858;28;20020;-88
2021/06/30 04:13:16;;;;;;;5.57;3.83;;;20.00;78.90;;;;;;5097316;28;20027;-89
2021/06/30 04:15:43;;;;;;;4.78;3.28;;;20.00;78.70;;;;;;5097952;28;20031;-88
2021/06/30 04:18:09;;;;;;;3.92;2.97;;;20.00;78.60;;;;;;5097738;28;20032;-90
2021/06/30 04:20:35;;;;;;;2.95;2.53;;;20.10;78.50;;;;;;5116348;28;20084;-91
2021/06/30 04:23:01;;;;;;;2.55;2.28;;;20.10;78.30;;;;;;5097827;28;20032;-87
2021/06/30 04:25:26;;;;;;;2.80;2.40;;;20.20;78.20;;;;;;5097354;28;20024;-87
2021/06/30 04:27:52;;;;;;;3.85;2.72;;;20.20;78.00;;;;;;5097504;28;20078;-87
2021/06/30 04:30:18;;;;;;;2.63;2.42;;;20.30;78.00;;;;;;5097474;28;20056;-87
2021/06/30 04:32:46;;;;;;;3.42;2.47;;;20.40;77.90;;;;;;5097646;28;20077;-88
2021/06/30 04:35:12;;;;;;;3.55;2.72;;;20.40;77.90;;;;;;5115529;28;20118;-88
2021/06/30 04:37:38;;;;;;;3.08;2.50;;;20.50;77.90;;;;;;5097512;28;20504;-88
2021/06/30 04:40:05;;;;;;;3.75;2.80;;;20.60;77.70;;;;;;5097337;28;20051;-88
2021/06/30 04:42:31;;;;;;;3.78;2.42;;;20.60;77.50;;;;;;5116107;28;20019;-88
2021/06/30 04:44:57;;;;;;;4.68;2.97;;;20.70;77.30;;;;;;5097540;28;20035;-89
2021/06/30 04:47:23;;;;;;;4.40;2.40;;;20.80;77.20;;;;;;5097062;28;20107;-85
2021/06/30 04:49:48;;;;;;;4.93;3.20;;;20.90;77.10;;;;;;5096568;28;20385;-85
2021/06/30 04:52:14;;;;;;;2.92;2.58;;;20.90;77.00;;;;;;5096627;28;20032;-85
2021/06/30 04:54:40;;;;;;;3.35;2.53;;;21.00;76.40;;;;;;5096288;28;20023;-86
2021/06/30 04:57:05;;;;;;;3.08;2.60;;;21.10;76.80;;;;;;5115207;28;20037;-85
2021/06/30 04:59:31;;;;;;;2.70;2.50;;;21.20;76.80;;;;;;5097216;28;20449;-86
2021/06/30 05:01:57;;;;;;;2.97;2.50;;;21.30;76.60;;;;;;5097053;28;20073;-85
2021/06/30 05:04:23;;;;;;;2.80;2.45;;;21.40;76.60;;;;;;5114455;28;20032;-85
2021/06/30 05:06:48;;;;;;;3.20;2.38;;;21.50;76.40;;;;;;5114629;28;20020;-85
2021/06/30 05:09:14;;;;;;;2.63;2.40;;;21.60;76.40;;;;;;5114676;28;20034;-85
2021/06/30 05:11:40;;;;;;;4.65;3.75;;;21.70;76.20;;;;;;5117549;28;20024;-86
2021/06/30 05:14:06;;;;;;;5.45;3.20;;;21.80;76.00;;;;;;5096497;28;20043;-86
2021/06/30 05:16:32;;;;;;;4.38;3.50;;;21.90;75.70;;;;;;5114201;28;20457;-86
2021/06/30 05:18:58;;;;;;;3.70;3.33;;;22.00;75.10;;;;;;5094765;28;20024;-87
2021/06/30 05:21:24;;;;;;;3.47;3.13;;;22.10;74.60;;;;;;5095364;28;20023;-87
2021/06/30 05:23:50;;;;;;;4.10;3.00;;;22.20;74.60;;;;;;5113031;28;20020;-87
2021/06/30 05:26:16;;;;;;;3.00;2.60;;;22.20;74.50;;;;;;5094947;28;20024;-86
2021/06/30 05:28:42;;;;;;;3.45;2.90;;;22.30;74.30;;;;;;5095348;28;20051;-86
2021/06/30 05:31:08;;;;;;;3.33;3.03;;;22.40;73.80;;;;;;5095576;28;20019;-86
2021/06/30 05:33:33;;;;;;;3.08;2.78;;;22.40;73.60;;;;;;5113716;28;20050;-87
2021/06/30 05:35:59;;;;;;;2.95;2.50;;;22.50;73.50;;;;;;5115503;28;20020;-87
2021/06/30 05:38:25;;;;;;;3.42;2.80;;;22.50;73.20;;;;;;5114467;28;20380;-85
2021/06/30 05:40:51;;;;;;;4.53;3.53;;;22.70;73.10;;;;;;5114591;28;20016;-84
2021/06/30 05:43:17;;;;;;;5.10;4.05;;;22.70;72.80;;;;;;5114841;28;20028;-87
2021/06/30 05:45:43;;;;;;;4.65;4.05;;;22.80;72.20;;;;;;5095288;28;20020;-86
2021/06/30 05:48:09;;;;;;;3.70;3.30;;;22.90;72.00;;;;;;5096745;28;20044;-93
2021/06/30 05:50:35;;;;;;;3.55;2.95;;;23.00;72.00;;;;;;5115167;28;20072;-85
2021/06/30 05:53:02;;;;;;;3.10;2.80;;;23.10;71.90;;;;;;5096161;28;20071;-85
2021/06/30 05:55:28;;;;;;;138.52;88.35;;;23.20;71.80;;;;;;5096646;28;20532;-88
2021/06/30 05:57:53;;;;;;;103.57;80.75;;;23.20;71.50;;;;;;5095824;28;20127;-87
2021/06/30 06:00:21;;;;;;;49.80;40.35;;;23.40;71.40;;;;;;5115071;28;20032;-88
2021/06/30 06:02:48;;;;;;;31.45;24.40;;;23.50;71.20;;;;;;5115070;28;20012;-85
2021/06/30 06:05:14;;;;;;;17.88;14.77;;;23.60;70.80;;;;;;5096180;28;20027;-86
2021/06/30 06:07:40;;;;;;;11.68;9.82;;;23.70;70.40;;;;;;5096737;28;20032;-84
2021/06/30 06:10:08;;;;;;;9.35;7.20;;;23.80;70.00;;;;;;5080129;28;20036;-86
2021/06/30 06:12:35;;;;;;;7.00;5.68;;;23.90;69.60;;;;;;5115764;28;20110;-85
2021/06/30 06:15:03;;;;;;;6.32;4.68;;;23.90;69.50;;;;;;5097491;28;20024;-86
2021/06/30 06:17:29;;;;;;;4.90;3.97;;;24.00;69.30;;;;;;5097247;28;20548;-85
2021/06/30 06:19:54;;;;;;;134.65;91.70;;;24.10;69.30;;;;;;5120556;28;20059;-90
2021/06/30 06:22:20;;;;;;;47.78;41.10;;;24.30;69.10;;;;;;5097916;28;20122;-92
2021/06/30 06:24:48;;;;;;;27.70;23.98;;;24.40;68.70;;;;;;5117044;28;20098;-90
2021/06/30 06:27:14;;;;;;;19.80;16.85;;;24.50;68.40;;;;;;5115713;28;20024;-88
2021/06/30 06:29:40;;;;;;;12.35;11.02;;;24.60;68.20;;;;;;5107297;28;20376;-89
2021/06/30 06:32:07;;;;;;;8.80;7.90;;;24.70;67.80;;;;;;5102209;28;20035;-90
2021/06/30 06:34:33;;;;;;;7.50;6.53;;;24.80;67.30;;;;;;5115247;28;20025;-89
2021/06/30 06:37:01;;;;;;;6.53;5.82;;;24.80;67.10;;;;;;5098151;28;20107;-90
2021/06/30 06:39:28;;;;;;;4.72;4.22;;;24.90;67.10;;;;;;5099432;28;20038;-87
2021/06/30 06:41:54;;;;;;;5.10;4.18;;;24.90;66.80;;;;;;5099298;28;20035;-90
2021/06/30 06:44:20;;;;;;;5.85;4.85;;;25.10;66.80;;;;;;5100186;28;20016;-85
2021/06/30 06:46:46;;;;;;;4.38;3.75;;;25.10;66.50;;;;;;5100185;28;20048;-87
2021/06/30 06:49:12;;;;;;;3.92;3.30;;;25.20;66.30;;;;;;5099476;28;20038;-86
2021/06/30 06:51:39;;;;;;;3.70;3.30;;;25.30;66.10;;;;;;5111549;28;20072;-85
2021/06/30 06:54:07;;;;;;;3.60;2.92;;;25.40;65.80;;;;;;5085295;28;20127;-86
2021/06/30 06:56:33;;;;;;;3.20;2.70;;;25.50;65.60;;;;;;5097789;28;20024;-85
2021/06/30 06:58:59;;;;;;;2.80;2.50;;;25.50;65.50;;;;;;5094384;28;20036;-85
2021/06/30 07:01:25;;;;;;;3.33;2.70;;;25.60;65.30;;;;;;5094724;28;20028;-85
2021/06/30 07:03:52;;;;;;;3.10;2.72;;;25.70;65.10;;;;;;5094998;28;20020;-85
2021/06/30 07:06:18;;;;;;;2.80;2.30;;;25.80;64.90;;;;;;5077404;28;20024;-84
2021/06/30 07:08:44;;;;;;;3.25;2.40;;;25.90;64.70;;;;;;5077619;28;20032;-86
2021/06/30 07:11:10;;;;;;;3.08;2.28;;;26.00;64.40;;;;;;5095319;28;20103;-85
2021/06/30 07:13:40;;;;;;;2.40;2.20;;;26.10;64.10;;;;;;5078108;28;20377;-83
2021/06/30 07:16:07;;;;;;;2.40;2.20;;;26.10;63.70;;;;;;5078684;28;20059;-83
2021/06/30 07:18:34;;;;;;;2.40;2.20;;;26.20;63.60;;;;;;5097242;28;20031;-83
2021/06/30 07:21:03;;;;;;;2.88;2.40;;;26.20;63.20;;;;;;5078445;28;20035;-84
2021/06/30 07:23:30;;;;;;;3.43;2.30;;;26.30;63.00;;;;;;5096520;28;20408;-82
2021/06/30 07:25:56;;;;;;;2.50;2.30;;;26.40;62.90;;;;;;5096497;28;20017;-84
2021/06/30 07:28:22;;;;;;;2.72;2.28;;;26.40;63.00;;;;;;5078447;28;20127;-83
2021/06/30 07:30:48;;;;;;;2.20;2.00;;;26.50;62.80;;;;;;5096648;28;20058;-82
2021/06/30 07:33:13;;;;;;;2.78;2.47;;;26.60;62.60;;;;;;5097030;28;20029;-83
2021/06/30 07:35:39;;;;;;;2.83;2.35;;;26.70;61.70;;;;;;5095486;28;20032;-84
2021/06/30 07:38:05;;;;;;;2.30;2.10;;;26.80;61.80;;;;;;5078718;28;20115;-84
2021/06/30 07:40:32;;;;;;;2.50;2.30;;;26.90;61.60;;;;;;5095660;28;20111;-84
2021/06/30 07:42:58;;;;;;;4.03;3.28;;;27.00;61.40;;;;;;5078117;28;20064;-83
2021/06/30 07:45:24;;;;;;;3.28;2.67;;;27.10;61.10;;;;;;5096789;28;20479;-83
2021/06/30 07:47:50;;;;;;;3.33;3.00;;;27.20;61.20;;;;;;5073681;28;20040;-83
2021/06/30 07:50:17;;;;;;;2.78;2.58;;;27.30;60.60;;;;;;5076356;28;20032;-83
2021/06/30 07:52:45;;;;;;;3.45;2.80;;;27.40;60.10;;;;;;5076241;28;20115;-83
2021/06/30 07:55:12;;;;;;;3.88;3.00;;;27.40;59.20;;;;;;5074700;28;20059;-84
2021/06/30 07:57:38;;;;;;;3.20;2.90;;;27.30;58.70;;;;;;5074789;28;20029;-84
2021/06/30 08:00:07;;;;;;;3.72;2.97;;;27.30;58.60;;;;;;5092290;28;20016;-84
2021/06/30 08:02:33;;;;;;;3.10;2.70;;;27.20;58.60;;;;;;5074751;28;20036;-84
2021/06/30 08:04:59;;;;;;;3.42;3.03;;;27.20;58.80;;;;;;5076619;28;20029;-84
2021/06/30 08:07:25;;;;;;;3.60;3.03;;;27.30;58.60;;;;;;5075691;28;20028;-83
2021/06/30 08:09:51;;;;;;;3.20;2.90;;;27.30;58.20;;;;;;5074500;28;20032;-83
2021/06/30 08:12:17;;;;;;;3.50;2.92;;;27.30;57.80;;;;;;5091468;28;20024;-84
2021/06/30 08:14:43;;;;;;;3.30;3.00;;;27.30;57.70;;;;;;5075544;28;20021;-83
2021/06/30 08:17:08;;;;;;;3.08;2.78;;;27.40;57.60;;;;;;5075803;28;20021;-83
2021/06/30 08:19:34;;;;;;;2.80;2.60;;;27.40;57.80;;;;;;5075453;28;20377;-83
2021/06/30 08:22:00;;;;;;;3.08;2.63;;;27.50;58.40;;;;;;5074060;28;20020;-84
2021/06/30 08:24:26;;;;;;;3.35;3.05;;;27.70;59.50;;;;;;5074911;28;20024;-83
2021/06/30 08:26:53;;;;;;;3.30;3.00;;;28.00;59.90;;;;;;5075349;28;20056;-83
2021/06/30 08:29:21;;;;;;;3.15;2.78;;;28.30;60.20;;;;;;5074175;28;20040;-83
2021/06/30 08:31:47;;;;;;;3.40;3.10;;;28.70;60.20;;;;;;5075475;28;20024;-84
2021/06/30 08:34:12;;;;;;;4.18;3.30;;;29.10;59.30;;;;;;5075201;28;20031;-84
2021/06/30 08:36:38;;;;;;;3.75;3.28;;;29.40;57.80;;;;;;5073977;28;20082;-83
2021/06/30 08:39:05;;;;;;;4.53;3.35;;;29.60;58.00;;;;;;5073784;28;20068;-84
2021/06/30 08:41:31;;;;;;;3.60;3.30;;;29.80;58.50;;;;;;5074053;28;20078;-83
2021/06/30 08:43:57;;;;;;;4.05;3.65;;;30.10;58.00;;;;;;5073826;28;20494;-83
2021/06/30 08:46:23;;;;;;;3.13;2.83;;;30.30;57.60;;;;;;5075497;28;20031;-83
2021/06/30 08:48:55;;;;;;;3.97;3.13;;;30.60;58.10;;;;;;5093549;28;20132;-83
2021/06/30 08:51:22;;;;;;;4.03;3.63;;;30.90;57.90;;;;;;5095108;28;20024;-83
2021/06/30 08:53:48;;;;;;;4.75;3.50;;;31.40;56.50;;;;;;5077358;28;20397;-83
2021/06/30 08:56:18;;;;;;;3.97;3.58;;;31.60;56.10;;;;;;5095319;28;20385;-83
2021/06/30 08:58:44;;;;;;;4.43;3.72;;;31.80;55.80;;;;;;5076759;28;20386;-83
2021/06/30 09:01:10;;;;;;;3.83;3.50;;;32.00;55.30;;;;;;5095527;28;20036;-83
2021/06/30 09:03:43;;;;;;;3.95;2.88;;;32.20;55.50;;;;;;5095046;28;20108;-83
2021/06/30 09:06:12;;;;;;;4.45;3.53;;;32.40;54.40;;;;;;5095590;28;20472;-84
2021/06/30 09:08:43;;;;;;;3.50;3.20;;;32.70;54.50;;;;;;5094931;28;20039;-83
2021/06/30 09:11:14;;;;;;;3.70;3.30;;;33.10;53.20;;;;;;5094879;28;20028;-83
2021/06/30 09:13:40;;;;;;;5.97;4.70;;;33.30;52.20;;;;;;5076686;28;20034;-84
2021/06/30 09:16:06;;;;;;;4.30;3.90;;;33.40;51.20;;;;;;5076540;28;20356;-83
2021/06/30 09:18:37;;;;;;;3.67;3.38;;;33.50;50.60;;;;;;5094256;28;20028;-83
2021/06/30 09:21:18;;;;;;;4.25;3.85;;;33.60;50.70;;;;;;5076836;28;20024;-85
2021/06/30 09:24:00;;;;;;;4.05;3.65;;;33.80;45.70;;;;;;5094633;28;20020;-84
2021/06/30 09:26:28;;;;;;;4.00;3.60;;;33.90;49.00;;;;;;5094405;28;20021;-85
2021/06/30 09:29:05;;;;;;;3.65;3.35;;;34.00;48.80;;;;;;5075965;28;20065;-84
2021/06/30 09:31:32;;;;;;;3.70;3.40;;;34.10;48.30;;;;;;5076123;28;20032;-85
2021/06/30 09:33:57;;;;;;;4.00;3.60;;;34.20;48.20;;;;;;5076186;28;20035;-84
2021/06/30 09:36:33;;;;;;;4.13;3.65;;;34.20;47.60;;;;;;5093485;28;20035;-84
2021/06/30 09:39:10;;;;;;;3.90;3.53;;;34.40;47.00;;;;;;5094529;28;20028;-84
2021/06/30 09:41:38;;;;;;;4.07;3.67;;;34.50;45.10;;;;;;5094184;28;20099;-85
2021/06/30 09:44:05;;;;;;;4.43;4.03;;;34.60;47.60;;;;;;5076054;28;20034;-85
2021/06/30 09:46:31;;;;;;;4.95;3.85;;;34.80;46.70;;;;;;5076195;28;20032;-85
2021/06/30 09:48:59;;;;;;;3.83;3.50;;;34.90;46.10;;;;;;5076199;28;20044;-85
2021/06/30 09:51:26;;;;;;;3.88;3.50;;;34.90;46.00;;;;;;5076282;28;20445;-85
2021/06/30 09:53:52;;;;;;;3.63;3.30;;;35.00;45.80;;;;;;5076191;28;20027;-85
2021/06/30 09:56:38;;;;;;;3.60;3.30;;;35.10;46.30;;;;;;5094150;28;20101;-85
2021/06/30 09:59:31;;;;;;;3.63;3.33;;;35.50;46.30;;;;;;5094315;28;20024;-84
2021/06/30 10:01:58;;;;;;;3.90;3.50;;;35.80;45.50;;;;;;5094019;28;20068;-85
2021/06/30 10:04:45;;;;;;;3.53;3.22;;;36.20;46.10;;;;;;5076093;28;20031;-85
2021/06/30 10:07:24;;;;;;;3.38;3.05;;;36.60;41.10;;;;;;5092668;28;20035;-85
2021/06/30 10:09:52;;;;;;;3.37;2.93;;;37.00;41.60;;;;;;5093713;28;20028;-84
2021/06/30 10:12:24;;;;;;;3.28;2.97;;;37.10;44.20;;;;;;5091973;28;20424;-84
2021/06/30 10:14:53;;;;;;;3.33;2.95;;;36.90;43.00;;;;;;5075557;28;20039;-84
2021/06/30 10:17:20;;;;;;;3.05;2.85;;;36.50;43.40;;;;;;5093935;28;20024;-84
2021/06/30 10:19:51;;;;;;;3.15;2.85;;;36.10;44.00;;;;;;5094097;28;20031;-84
2021/06/30 10:22:18;;;;;;;5.00;2.97;;;36.10;44.40;;;;;;5093722;28;20103;-84
2021/06/30 10:24:44;;;;;;;3.60;3.10;;;36.30;44.60;;;;;;5093625;28;20063;-85
2021/06/30 10:27:11;;;;;;;3.85;3.20;;;36.60;44.80;;;;;;5093707;28;20064;-85
2021/06/30 10:29:51;;;;;;;4.00;3.22;;;36.90;44.00;;;;;;5092763;28;20035;-85
2021/06/30 10:32:17;;;;;;;3.80;3.42;;;37.20;42.60;;;;;;5093908;28;20458;-85
2021/06/30 10:34:57;;;;;;;3.83;3.42;;;37.40;43.50;;;;;;5092503;28;20031;-84
2021/06/30 10:37:29;;;;;;;3.80;3.50;;;37.80;41.60;;;;;;5093756;28;20034;-84
2021/06/30 10:40:02;;;;;;;3.50;3.20;;;38.10;41.90;;;;;;5093472;28;20128;-86
2021/06/30 10:42:34;;;;;;;3.38;3.08;;;38.10;41.80;;;;;;5093766;28;20024;-85
2021/06/30 10:45:21;;;;;;;3.80;3.20;;;37.70;41.40;;;;;;5094458;28;20024;-86
2021/06/30 10:48:02;;;;;;;3.63;3.33;;;37.30;39.50;;;;;;5075155;28;20048;-85
2021/06/30 10:50:43;;;;;;;3.33;3.03;;;37.10;39.90;;;;;;5075356;28;20452;-85
2021/06/30 10:53:12;;;;;;;4.25;3.28;;;36.70;40.70;;;;;;5092273;28;20114;-84
2021/06/30 10:55:39;;;;;;;3.55;3.25;;;36.10;41.70;;;;;;5092258;28;20370;-85
2021/06/30 10:58:17;;;;;;;4.20;3.05;;;35.50;42.00;;;;;;5093444;28;20388;-85
2021/06/30 11:01:09;;;;;;;3.33;3.03;;;35.00;42.00;;;;;;5075092;28;20122;-85
2021/06/30 11:03:44;;;;;;;3.50;3.20;;;34.50;42.20;;;;;;5070193;28;20040;-84
2021/06/30 11:06:12;;;;;;;3.67;3.25;;;34.40;43.60;;;;;;5092017;28;20028;-84
2021/06/30 11:08:39;;;;;;;4.10;3.70;;;34.70;44.30;;;;;;5093285;28;20047;-84
2021/06/30 11:11:04;;;;;;;3.90;3.47;;;35.40;44.10;;;;;;5093232;28;20020;-84
2021/06/30 11:13:55;;;;;;;3.47;3.17;;;36.10;43.70;;;;;;5093451;28;20024;-84
2021/06/30 11:16:54;;;;;;;4.57;3.70;;;36.90;41.20;;;;;;5092522;28;20397;-84
2021/06/30 11:19:20;;;;;;;3.80;3.33;;;37.60;39.20;;;;;;5047495;28;20036;-85
2021/06/30 11:21:53;;;;;;;3.58;3.28;;;38.10;41.70;;;;;;5093377;28;20347;-85
2021/06/30 11:24:47;;;;;;;3.33;3.03;;;38.50;40.70;;;;;;5094562;28;20028;-86
2021/06/30 11:27:20;;;;;;;3.45;3.10;;;38.90;37.20;;;;;;5095663;28;20462;-85
2021/06/30 11:32:40;;;;;;;2.95;2.65;;;39.30;39.20;;;;;;5097118;28;20458;-86
2021/06/30 11:35:08;;;;;;;2.60;2.40;;;39.40;38.30;;;;;;5096981;28;20111;-86
2021/06/30 11:37:35;;;;;;;2.60;2.40;;;39.50;38.30;;;;;;5096922;28;20469;-86
2021/06/30 11:40:10;;;;;;;2.40;2.20;;;39.60;37.20;;;;;;5096606;28;20028;-86
2021/06/30 11:42:40;;;;;;;2.55;2.35;;;39.00;36.20;;;;;;5078810;28;20077;-85
2021/06/30 11:45:33;;;;;;;2.50;2.30;;;38.30;36.60;;;;;;5096578;28;20024;-85
2021/06/30 11:48:03;;;;;;;3.50;2.40;;;38.00;35.40;;;;;;5096589;28;20131;-85
2021/06/30 11:50:33;;;;;;;2.40;2.20;;;38.10;37.40;;;;;;5096757;28;20058;-86
2021/06/30 11:52:59;;;;;;;2.70;2.50;;;38.40;37.40;;;;;;5096418;28;20131;-85
2021/06/30 11:55:40;;;;;;;2.88;2.58;;;38.70;36.80;;;;;;5096738;28;20102;-85
2021/06/30 11:58:06;;;;;;;2.85;2.40;;;39.00;33.70;;;;;;5096834;28;20097;-84
2021/06/30 12:00:34;;;;;;;2.70;2.50;;;39.10;36.00;;;;;;5078161;28;20390;-85
2021/06/30 12:03:02;;;;;;;2.25;2.15;;;39.50;35.70;;;;;;5077807;28;20550;-85
2021/06/30 12:05:30;;;;;;;3.35;2.50;;;39.70;35.60;;;;;;5096539;28;20408;-85
2021/06/30 12:07:58;;;;;;;2.70;2.50;;;40.00;35.50;;;;;;5096265;28;20457;-85
2021/06/30 12:10:26;;;;;;;2.90;2.58;;;40.30;35.20;;;;;;5096259;28;20115;-86
2021/06/30 12:12:52;;;;;;;2.85;2.65;;;40.50;34.50;;;;;;5096528;28;20052;-85
2021/06/30 12:15:19;;;;;;;3.60;2.75;;;40.60;34.70;;;;;;5095767;28;20028;-85
2021/06/30 12:17:46;;;;;;;2.85;2.65;;;40.80;35.10;;;;;;5078421;28;20028;-85
2021/06/30 12:20:13;;;;;;;3.67;3.22;;;41.00;35.00;;;;;;5096587;28;20036;-84
2021/06/30 12:22:40;;;;;;;3.80;2.50;;;41.20;35.00;;;;;;5096474;28;20050;-85
2021/06/30 12:25:15;;;;;;;3.00;2.70;;;41.20;34.80;;;;;;5096956;28;20030;-86
2021/06/30 12:27:51;;;;;;;3.35;2.63;;;41.00;34.40;;;;;;5097427;28;20036;-86
2021/06/30 12:30:22;;;;;;;3.08;2.75;;;40.60;34.50;;;;;;5097342;28;20035;-85
2021/06/30 12:32:56;;;;;;;3.80;3.03;;;40.40;35.30;;;;;;5095461;28;20374;-85
2021/06/30 12:35:26;;;;;;;2.83;2.63;;;40.60;35.30;;;;;;5095182;28;20113;-85
2021/06/30 12:38:04;;;;;;;3.42;2.50;;;40.80;34.80;;;;;;5094436;28;20024;-85
2021/06/30 12:40:32;;;;;;;2.90;2.60;;;40.80;34.20;;;;;;5077734;28;20028;-86
2021/06/30 12:43:21;;;;;;;2.70;2.50;;;40.90;34.80;;;;;;5095737;28;20051;-85
2021/06/30 12:46:00;;;;;;;2.72;2.47;;;41.00;34.10;;;;;;5095230;28;20020;-86
2021/06/30 12:48:33;;;;;;;2.50;2.30;;;41.20;33.20;;;;;;5077131;28;20044;-86
2021/06/30 12:51:09;;;;;;;2.78;2.58;;;41.30;33.20;;;;;;5094904;28;20460;-86
2021/06/30 12:53:42;;;;;;;2.00;1.90;;;41.50;32.90;;;;;;5094684;28;20028;-85